sensor_id;sensor_type;location;lat;lon;timestamp;P1;durP1;ratioP1;P2;durP2;ratioP2
48629;SDS011;34426;52.180;4.462;2022-08-19T00:01:53;9.73;;;5.03;;
48629;SDS011;34426;52.180;4.462;2022-08-19T00:04:22;17.85;;;5.68;;
48629;SDS011;34426;52.180;4.462;2022-08-19T00:06:51;10.60;;;5.13;;
48629;SDS011;34426;52.180;4.462;2022-08-19T00:09:19;13.45;;;5.05;;
48629;SDS011;34426;52.180;4.462;2022-08-19T00:11:48;9.27;;;5.20;;
48629;SDS011;34426;52.180;4.462;2022-08-19T00:14:17;8.70;;;5.22;;
48629;SDS011;34426;52.180;4.462;2022-08-19T00:16:46;10.85;;;5.65;;
48629;SDS011;34426;52.180;4.462;2022-08-19T00:19:16;12.23;;;5.63;;
48629;SDS011;34426;52.180;4.462;2022-08-19T00:21:43;13.13;;;5.20;;
48629;SDS011;34426;52.180;4.462;2022-08-19T00:24:12;9.55;;;4.65;;
48629;SDS011;34426;52.180;4.462;2022-08-19T00:26:41;14.60;;;5.38;;
48629;SDS011;34426;52.180;4.462;2022-08-19T00:29:09;12.63;;;4.82;;
48629;SDS011;34426;52.180;4.462;2022-08-19T00:31:38;9.70;;;4.63;;
48629;SDS011;34426;52.180;4.462;2022-08-19T00:34:05;10.77;;;4.97;;
48629;SDS011;34426;52.180;4.462;2022-08-19T00:36:34;10.48;;;5.53;;
48629;SDS011;34426;52.180;4.462;2022-08-19T00:39:02;8.43;;;4.90;;
48629;SDS011;34426;52.180;4.462;2022-08-19T00:41:30;9.30;;;4.90;;
48629;SDS011;34426;52.180;4.462;2022-08-19T00:43:58;13.15;;;5.82;;
48629;SDS011;34426;52.180;4.462;2022-08-19T00:46:27;13.30;;;4.85;;
48629;SDS011;34426;52.180;4.462;2022-08-19T00:48:55;12.90;;;5.45;;
48629;SDS011;34426;52.180;4.462;2022-08-19T00:51:24;11.10;;;5.03;;
48629;SDS011;34426;52.180;4.462;2022-08-19T00:53:55;8.68;;;5.15;;
48629;SDS011;34426;52.180;4.462;2022-08-19T00:56:24;10.95;;;5.43;;
48629;SDS011;34426;52.180;4.462;2022-08-19T00:58:54;11.65;;;5.13;;
48629;SDS011;34426;52.180;4.462;2022-08-19T01:01:24;12.80;;;5.88;;
48629;SDS011;34426;52.180;4.462;2022-08-19T01:03:52;12.77;;;5.45;;
48629;SDS011;34426;52.180;4.462;2022-08-19T01:06:19;11.30;;;5.95;;
48629;SDS011;34426;52.180;4.462;2022-08-19T01:08:47;14.20;;;5.40;;
48629;SDS011;34426;52.180;4.462;2022-08-19T01:11:17;16.02;;;6.05;;
48629;SDS011;34426;52.180;4.462;2022-08-19T01:13:45;13.60;;;5.80;;
48629;SDS011;34426;52.180;4.462;2022-08-19T01:16:13;13.57;;;6.47;;
48629;SDS011;34426;52.180;4.462;2022-08-19T01:18:42;14.70;;;6.68;;
48629;SDS011;34426;52.180;4.462;2022-08-19T01:21:12;8.65;;;4.93;;
48629;SDS011;34426;52.180;4.462;2022-08-19T01:23:46;10.20;;;5.22;;
48629;SDS011;34426;52.180;4.462;2022-08-19T01:26:14;8.82;;;5.20;;
48629;SDS011;34426;52.180;4.462;2022-08-19T01:28:43;10.43;;;4.78;;
48629;SDS011;34426;52.180;4.462;2022-08-19T01:31:12;10.52;;;5.50;;
48629;SDS011;34426;52.180;4.462;2022-08-19T01:33:42;13.38;;;4.85;;
48629;SDS011;34426;52.180;4.462;2022-08-19T01:36:11;14.15;;;5.28;;
48629;SDS011;34426;52.180;4.462;2022-08-19T01:38:41;9.73;;;5.05;;
48629;SDS011;34426;52.180;4.462;2022-08-19T01:41:11;9.55;;;5.47;;
48629;SDS011;34426;52.180;4.462;2022-08-19T01:43:39;12.02;;;5.72;;
48629;SDS011;34426;52.180;4.462;2022-08-19T01:46:06;10.88;;;5.43;;
48629;SDS011;34426;52.180;4.462;2022-08-19T01:48:34;7.63;;;5.35;;
48629;SDS011;34426;52.180;4.462;2022-08-19T01:51:02;12.25;;;6.63;;
48629;SDS011;34426;52.180;4.462;2022-08-19T01:53:30;12.32;;;6.22;;
48629;SDS011;34426;52.180;4.462;2022-08-19T01:55:58;10.15;;;5.50;;
48629;SDS011;34426;52.180;4.462;2022-08-19T01:58:30;10.77;;;6.07;;
48629;SDS011;34426;52.180;4.462;2022-08-19T02:01:01;10.50;;;6.00;;
48629;SDS011;34426;52.180;4.462;2022-08-19T02:03:28;13.35;;;6.30;;
48629;SDS011;34426;52.180;4.462;2022-08-19T02:05:56;13.38;;;7.47;;
48629;SDS011;34426;52.180;4.462;2022-08-19T02:08:25;16.23;;;7.25;;
48629;SDS011;34426;52.180;4.462;2022-08-19T02:10:53;11.93;;;8.40;;
48629;SDS011;34426;52.180;4.462;2022-08-19T02:13:21;15.48;;;8.77;;
48629;SDS011;34426;52.180;4.462;2022-08-19T02:15:53;12.85;;;8.05;;
48629;SDS011;34426;52.180;4.462;2022-08-19T02:18:20;13.85;;;8.10;;
48629;SDS011;34426;52.180;4.462;2022-08-19T02:20:48;20.02;;;11.20;;
48629;SDS011;34426;52.180;4.462;2022-08-19T02:23:16;18.35;;;12.82;;
48629;SDS011;34426;52.180;4.462;2022-08-19T02:25:44;13.15;;;10.57;;
48629;SDS011;34426;52.180;4.462;2022-08-19T02:28:12;19.98;;;14.88;;
48629;SDS011;34426;52.180;4.462;2022-08-19T02:30:40;26.00;;;16.67;;
48629;SDS011;34426;52.180;4.462;2022-08-19T02:33:10;38.83;;;23.17;;
48629;SDS011;34426;52.180;4.462;2022-08-19T02:35:40;28.23;;;20.42;;
48629;SDS011;34426;52.180;4.462;2022-08-19T02:38:09;39.75;;;25.20;;
48629;SDS011;34426;52.180;4.462;2022-08-19T02:40:37;35.75;;;24.25;;
48629;SDS011;34426;52.180;4.462;2022-08-19T02:43:05;32.58;;;22.60;;
48629;SDS011;34426;52.180;4.462;2022-08-19T02:45:34;34.03;;;25.02;;
48629;SDS011;34426;52.180;4.462;2022-08-19T02:48:03;46.78;;;28.95;;
48629;SDS011;34426;52.180;4.462;2022-08-19T02:50:32;56.05;;;32.10;;
48629;SDS011;34426;52.180;4.462;2022-08-19T02:55:29;45.53;;;30.30;;
48629;SDS011;34426;52.180;4.462;2022-08-19T02:57:56;53.22;;;33.63;;
48629;SDS011;34426;52.180;4.462;2022-08-19T03:00:23;54.75;;;33.05;;
48629;SDS011;34426;52.180;4.462;2022-08-19T03:02:51;50.30;;;32.20;;
48629;SDS011;34426;52.180;4.462;2022-08-19T03:05:18;52.28;;;33.50;;
48629;SDS011;34426;52.180;4.462;2022-08-19T03:07:48;53.45;;;34.28;;
48629;SDS011;34426;52.180;4.462;2022-08-19T03:10:15;53.95;;;33.83;;
48629;SDS011;34426;52.180;4.462;2022-08-19T03:12:43;49.58;;;34.65;;
48629;SDS011;34426;52.180;4.462;2022-08-19T03:15:10;49.78;;;33.03;;
48629;SDS011;34426;52.180;4.462;2022-08-19T03:17:38;64.85;;;34.50;;
48629;SDS011;34426;52.180;4.462;2022-08-19T03:20:06;47.75;;;33.05;;
48629;SDS011;34426;52.180;4.462;2022-08-19T03:22:34;44.13;;;33.92;;
48629;SDS011;34426;52.180;4.462;2022-08-19T03:25:03;54.15;;;35.05;;
48629;SDS011;34426;52.180;4.462;2022-08-19T03:27:31;58.22;;;36.20;;
48629;SDS011;34426;52.180;4.462;2022-08-19T03:29:58;49.38;;;33.75;;
48629;SDS011;34426;52.180;4.462;2022-08-19T03:32:25;55.05;;;33.95;;
48629;SDS011;34426;52.180;4.462;2022-08-19T03:34:53;53.65;;;33.95;;
48629;SDS011;34426;52.180;4.462;2022-08-19T03:37:20;51.78;;;34.75;;
48629;SDS011;34426;52.180;4.462;2022-08-19T03:39:48;48.70;;;32.30;;
48629;SDS011;34426;52.180;4.462;2022-08-19T03:42:17;57.78;;;33.45;;
48629;SDS011;34426;52.180;4.462;2022-08-19T03:44:44;53.72;;;34.00;;
48629;SDS011;34426;52.180;4.462;2022-08-19T03:47:12;55.60;;;35.70;;
48629;SDS011;34426;52.180;4.462;2022-08-19T03:49:39;52.55;;;34.33;;
48629;SDS011;34426;52.180;4.462;2022-08-19T03:52:07;58.15;;;35.17;;
48629;SDS011;34426;52.180;4.462;2022-08-19T03:54:35;59.47;;;34.95;;
48629;SDS011;34426;52.180;4.462;2022-08-19T03:57:03;55.17;;;35.63;;
48629;SDS011;34426;52.180;4.462;2022-08-19T03:59:32;53.38;;;33.90;;
48629;SDS011;34426;52.180;4.462;2022-08-19T04:02:03;56.17;;;35.25;;
48629;SDS011;34426;52.180;4.462;2022-08-19T04:07:01;53.63;;;34.13;;
48629;SDS011;34426;52.180;4.462;2022-08-19T04:09:29;64.57;;;37.30;;
48629;SDS011;34426;52.180;4.462;2022-08-19T04:11:57;58.75;;;36.88;;
48629;SDS011;34426;52.180;4.462;2022-08-19T04:14:25;66.72;;;38.13;;
48629;SDS011;34426;52.180;4.462;2022-08-19T04:16:56;58.10;;;37.50;;
48629;SDS011;34426;52.180;4.462;2022-08-19T04:19:24;60.13;;;36.53;;
48629;SDS011;34426;52.180;4.462;2022-08-19T04:21:53;59.22;;;37.95;;
48629;SDS011;34426;52.180;4.462;2022-08-19T04:24:21;60.60;;;38.30;;
48629;SDS011;34426;52.180;4.462;2022-08-19T04:26:49;57.25;;;36.78;;
48629;SDS011;34426;52.180;4.462;2022-08-19T04:29:17;66.35;;;39.20;;
48629;SDS011;34426;52.180;4.462;2022-08-19T04:31:46;66.63;;;38.85;;
48629;SDS011;34426;52.180;4.462;2022-08-19T04:34:17;68.78;;;40.65;;
48629;SDS011;34426;52.180;4.462;2022-08-19T04:36:45;66.90;;;41.80;;
48629;SDS011;34426;52.180;4.462;2022-08-19T04:39:14;69.80;;;41.88;;
48629;SDS011;34426;52.180;4.462;2022-08-19T04:41:43;64.65;;;40.70;;
48629;SDS011;34426;52.180;4.462;2022-08-19T04:44:12;65.22;;;41.72;;
48629;SDS011;34426;52.180;4.462;2022-08-19T04:46:40;75.97;;;45.08;;
48629;SDS011;34426;52.180;4.462;2022-08-19T04:49:07;79.90;;;47.25;;
48629;SDS011;34426;52.180;4.462;2022-08-19T04:51:39;76.75;;;46.92;;
48629;SDS011;34426;52.180;4.462;2022-08-19T04:54:08;88.13;;;51.83;;
48629;SDS011;34426;52.180;4.462;2022-08-19T04:56:35;92.90;;;49.85;;
48629;SDS011;34426;52.180;4.462;2022-08-19T04:59:04;98.03;;;53.97;;
48629;SDS011;34426;52.180;4.462;2022-08-19T05:01:32;101.63;;;54.53;;
48629;SDS011;34426;52.180;4.462;2022-08-19T05:04:01;101.47;;;55.90;;
48629;SDS011;34426;52.180;4.462;2022-08-19T05:06:29;93.57;;;54.25;;
48629;SDS011;34426;52.180;4.462;2022-08-19T05:08:59;99.22;;;57.17;;
48629;SDS011;34426;52.180;4.462;2022-08-19T05:11:27;100.43;;;55.13;;
48629;SDS011;34426;52.180;4.462;2022-08-19T05:13:56;101.22;;;56.63;;
48629;SDS011;34426;52.180;4.462;2022-08-19T05:16:24;117.22;;;60.75;;
48629;SDS011;34426;52.180;4.462;2022-08-19T05:18:52;112.80;;;60.15;;
48629;SDS011;34426;52.180;4.462;2022-08-19T05:21:20;108.93;;;59.72;;
48629;SDS011;34426;52.180;4.462;2022-08-19T05:23:48;102.88;;;55.33;;
48629;SDS011;34426;52.180;4.462;2022-08-19T05:26:17;105.13;;;55.92;;
48629;SDS011;34426;52.180;4.462;2022-08-19T05:28:44;106.93;;;57.58;;
48629;SDS011;34426;52.180;4.462;2022-08-19T05:31:12;97.50;;;52.45;;
48629;SDS011;34426;52.180;4.462;2022-08-19T05:33:41;112.13;;;56.25;;
48629;SDS011;34426;52.180;4.462;2022-08-19T05:36:08;95.82;;;52.72;;
48629;SDS011;34426;52.180;4.462;2022-08-19T05:38:36;114.93;;;55.63;;
48629;SDS011;34426;52.180;4.462;2022-08-19T05:41:06;100.15;;;52.33;;
48629;SDS011;34426;52.180;4.462;2022-08-19T05:43:36;113.32;;;55.13;;
48629;SDS011;34426;52.180;4.462;2022-08-19T05:46:04;99.63;;;52.20;;
48629;SDS011;34426;52.180;4.462;2022-08-19T05:48:31;103.93;;;53.28;;
48629;SDS011;34426;52.180;4.462;2022-08-19T05:51:02;98.82;;;53.55;;
48629;SDS011;34426;52.180;4.462;2022-08-19T05:53:30;107.97;;;54.13;;
48629;SDS011;34426;52.180;4.462;2022-08-19T05:55:58;102.47;;;52.17;;
48629;SDS011;34426;52.180;4.462;2022-08-19T05:58:30;98.88;;;52.55;;
48629;SDS011;34426;52.180;4.462;2022-08-19T06:01:00;105.20;;;52.92;;
48629;SDS011;34426;52.180;4.462;2022-08-19T06:03:27;91.20;;;49.92;;
48629;SDS011;34426;52.180;4.462;2022-08-19T06:05:55;99.75;;;50.55;;
48629;SDS011;34426;52.180;4.462;2022-08-19T06:08:22;102.28;;;50.50;;
48629;SDS011;34426;52.180;4.462;2022-08-19T06:10:50;95.53;;;48.85;;
48629;SDS011;34426;52.180;4.462;2022-08-19T06:13:17;101.10;;;50.35;;
48629;SDS011;34426;52.180;4.462;2022-08-19T06:15:44;97.45;;;48.97;;
48629;SDS011;34426;52.180;4.462;2022-08-19T06:18:14;95.45;;;47.63;;
48629;SDS011;34426;52.180;4.462;2022-08-19T06:20:41;86.88;;;46.03;;
48629;SDS011;34426;52.180;4.462;2022-08-19T06:23:09;86.75;;;46.33;;
48629;SDS011;34426;52.180;4.462;2022-08-19T06:25:36;84.53;;;45.55;;
48629;SDS011;34426;52.180;4.462;2022-08-19T06:28:05;81.45;;;43.90;;
48629;SDS011;34426;52.180;4.462;2022-08-19T06:30:32;86.70;;;45.03;;
48629;SDS011;34426;52.180;4.462;2022-08-19T06:33:00;86.45;;;43.45;;
48629;SDS011;34426;52.180;4.462;2022-08-19T06:35:29;75.43;;;41.05;;
48629;SDS011;34426;52.180;4.462;2022-08-19T06:37:56;76.70;;;40.22;;
48629;SDS011;34426;52.180;4.462;2022-08-19T06:40:24;78.45;;;40.20;;
48629;SDS011;34426;52.180;4.462;2022-08-19T06:42:51;77.18;;;37.25;;
48629;SDS011;34426;52.180;4.462;2022-08-19T06:45:19;81.05;;;36.63;;
48629;SDS011;34426;52.180;4.462;2022-08-19T06:47:46;72.13;;;34.13;;
48629;SDS011;34426;52.180;4.462;2022-08-19T06:50:14;67.45;;;32.25;;
48629;SDS011;34426;52.180;4.462;2022-08-19T06:52:43;62.92;;;31.50;;
48629;SDS011;34426;52.180;4.462;2022-08-19T06:55:10;76.57;;;30.90;;
48629;SDS011;34426;52.180;4.462;2022-08-19T06:57:37;48.08;;;26.73;;
48629;SDS011;34426;52.180;4.462;2022-08-19T07:00:05;48.88;;;25.77;;
48629;SDS011;34426;52.180;4.462;2022-08-19T07:02:34;45.03;;;23.33;;
48629;SDS011;34426;52.180;4.462;2022-08-19T07:05:01;46.83;;;23.23;;
48629;SDS011;34426;52.180;4.462;2022-08-19T07:07:29;43.67;;;20.88;;
48629;SDS011;34426;52.180;4.462;2022-08-19T07:09:58;43.47;;;20.67;;
48629;SDS011;34426;52.180;4.462;2022-08-19T07:12:26;46.50;;;20.55;;
48629;SDS011;34426;52.180;4.462;2022-08-19T07:14:54;45.78;;;18.52;;
48629;SDS011;34426;52.180;4.462;2022-08-19T07:17:21;40.63;;;17.33;;
48629;SDS011;34426;52.180;4.462;2022-08-19T07:19:49;42.67;;;16.30;;
48629;SDS011;34426;52.180;4.462;2022-08-19T07:22:16;42.33;;;14.55;;
48629;SDS011;34426;52.180;4.462;2022-08-19T07:24:43;35.20;;;11.10;;
48629;SDS011;34426;52.180;4.462;2022-08-19T07:27:13;35.60;;;11.82;;
48629;SDS011;34426;52.180;4.462;2022-08-19T07:29:40;30.80;;;10.88;;
48629;SDS011;34426;52.180;4.462;2022-08-19T07:32:08;32.22;;;9.90;;
48629;SDS011;34426;52.180;4.462;2022-08-19T07:34:35;37.85;;;10.07;;
48629;SDS011;34426;52.180;4.462;2022-08-19T07:37:02;22.02;;;6.85;;
48629;SDS011;34426;52.180;4.462;2022-08-19T07:39:31;20.65;;;6.85;;
48629;SDS011;34426;52.180;4.462;2022-08-19T07:42:00;20.98;;;6.20;;
48629;SDS011;34426;52.180;4.462;2022-08-19T07:44:33;20.30;;;6.22;;
48629;SDS011;34426;52.180;4.462;2022-08-19T07:47:02;27.80;;;6.50;;
48629;SDS011;34426;52.180;4.462;2022-08-19T07:49:30;18.17;;;5.53;;
48629;SDS011;34426;52.180;4.462;2022-08-19T07:51:59;25.08;;;6.35;;
48629;SDS011;34426;52.180;4.462;2022-08-19T07:54:29;24.50;;;6.43;;
48629;SDS011;34426;52.180;4.462;2022-08-19T07:56:58;14.38;;;6.03;;
48629;SDS011;34426;52.180;4.462;2022-08-19T07:59:26;13.93;;;6.13;;
48629;SDS011;34426;52.180;4.462;2022-08-19T08:01:56;18.33;;;6.38;;
48629;SDS011;34426;52.180;4.462;2022-08-19T08:04:24;16.75;;;5.93;;
48629;SDS011;34426;52.180;4.462;2022-08-19T08:06:52;17.05;;;6.15;;
48629;SDS011;34426;52.180;4.462;2022-08-19T08:09:20;16.42;;;6.20;;
48629;SDS011;34426;52.180;4.462;2022-08-19T08:11:50;21.50;;;7.28;;
48629;SDS011;34426;52.180;4.462;2022-08-19T08:14:20;25.02;;;8.43;;
48629;SDS011;34426;52.180;4.462;2022-08-19T08:16:50;19.10;;;6.15;;
48629;SDS011;34426;52.180;4.462;2022-08-19T08:19:20;16.52;;;6.28;;
48629;SDS011;34426;52.180;4.462;2022-08-19T08:21:49;22.67;;;6.53;;
48629;SDS011;34426;52.180;4.462;2022-08-19T08:24:17;18.73;;;6.20;;
48629;SDS011;34426;52.180;4.462;2022-08-19T08:26:45;18.92;;;6.72;;
48629;SDS011;34426;52.180;4.462;2022-08-19T08:29:12;17.58;;;5.38;;
48629;SDS011;34426;52.180;4.462;2022-08-19T08:31:40;12.02;;;5.63;;
48629;SDS011;34426;52.180;4.462;2022-08-19T08:34:08;15.93;;;5.65;;
48629;SDS011;34426;52.180;4.462;2022-08-19T08:36:39;18.75;;;6.32;;
48629;SDS011;34426;52.180;4.462;2022-08-19T08:39:08;16.27;;;5.80;;
48629;SDS011;34426;52.180;4.462;2022-08-19T08:41:39;22.50;;;5.38;;
48629;SDS011;34426;52.180;4.462;2022-08-19T08:44:14;15.20;;;5.25;;
48629;SDS011;34426;52.180;4.462;2022-08-19T08:46:46;21.13;;;5.13;;
48629;SDS011;34426;52.180;4.462;2022-08-19T08:49:23;16.88;;;5.20;;
48629;SDS011;34426;52.180;4.462;2022-08-19T08:51:58;18.17;;;5.78;;
48629;SDS011;34426;52.180;4.462;2022-08-19T08:54:32;13.30;;;5.60;;
48629;SDS011;34426;52.180;4.462;2022-08-19T08:57:03;23.30;;;6.32;;
48629;SDS011;34426;52.180;4.462;2022-08-19T08:59:34;27.17;;;4.90;;
48629;SDS011;34426;52.180;4.462;2022-08-19T09:02:04;13.85;;;4.90;;
48629;SDS011;34426;52.180;4.462;2022-08-19T09:04:33;18.10;;;5.45;;
48629;SDS011;34426;52.180;4.462;2022-08-19T09:07:08;16.10;;;4.85;;
48629;SDS011;34426;52.180;4.462;2022-08-19T09:09:46;15.60;;;4.82;;
48629;SDS011;34426;52.180;4.462;2022-08-19T09:12:17;13.68;;;4.57;;
48629;SDS011;34426;52.180;4.462;2022-08-19T09:14:52;15.65;;;4.65;;
48629;SDS011;34426;52.180;4.462;2022-08-19T09:19:52;14.95;;;4.82;;
48629;SDS011;34426;52.180;4.462;2022-08-19T09:22:23;11.90;;;3.60;;
48629;SDS011;34426;52.180;4.462;2022-08-19T09:24:51;18.70;;;4.50;;
48629;SDS011;34426;52.180;4.462;2022-08-19T09:27:20;16.70;;;4.45;;
48629;SDS011;34426;52.180;4.462;2022-08-19T09:29:49;12.77;;;3.70;;
48629;SDS011;34426;52.180;4.462;2022-08-19T09:32:16;14.57;;;3.97;;
48629;SDS011;34426;52.180;4.462;2022-08-19T09:34:44;14.75;;;3.60;;
48629;SDS011;34426;52.180;4.462;2022-08-19T09:37:12;11.07;;;3.45;;
48629;SDS011;34426;52.180;4.462;2022-08-19T09:39:42;13.60;;;3.10;;
48629;SDS011;34426;52.180;4.462;2022-08-19T09:42:09;12.52;;;3.55;;
48629;SDS011;34426;52.180;4.462;2022-08-19T09:44:37;16.20;;;3.55;;
48629;SDS011;34426;52.180;4.462;2022-08-19T09:47:04;12.38;;;4.10;;
48629;SDS011;34426;52.180;4.462;2022-08-19T09:49:32;16.38;;;3.63;;
48629;SDS011;34426;52.180;4.462;2022-08-19T09:51:59;17.05;;;3.75;;
48629;SDS011;34426;52.180;4.462;2022-08-19T09:54:27;12.48;;;3.90;;
48629;SDS011;34426;52.180;4.462;2022-08-19T09:56:57;10.45;;;3.60;;
48629;SDS011;34426;52.180;4.462;2022-08-19T09:59:25;8.52;;;2.88;;
48629;SDS011;34426;52.180;4.462;2022-08-19T10:01:53;16.17;;;3.63;;
48629;SDS011;34426;52.180;4.462;2022-08-19T10:04:21;13.23;;;3.97;;
48629;SDS011;34426;52.180;4.462;2022-08-19T10:06:49;17.30;;;3.95;;
48629;SDS011;34426;52.180;4.462;2022-08-19T10:09:17;9.55;;;2.83;;
48629;SDS011;34426;52.180;4.462;2022-08-19T10:11:45;13.57;;;3.35;;
48629;SDS011;34426;52.180;4.462;2022-08-19T10:14:15;11.07;;;3.08;;
48629;SDS011;34426;52.180;4.462;2022-08-19T10:16:43;10.98;;;2.70;;
48629;SDS011;34426;52.180;4.462;2022-08-19T10:19:10;11.48;;;3.05;;
48629;SDS011;34426;52.180;4.462;2022-08-19T10:21:37;14.07;;;3.03;;
48629;SDS011;34426;52.180;4.462;2022-08-19T10:24:05;12.38;;;3.17;;
48629;SDS011;34426;52.180;4.462;2022-08-19T10:26:33;9.63;;;2.75;;
48629;SDS011;34426;52.180;4.462;2022-08-19T10:29:04;11.48;;;3.35;;
48629;SDS011;34426;52.180;4.462;2022-08-19T10:31:33;11.75;;;2.58;;
48629;SDS011;34426;52.180;4.462;2022-08-19T10:34:01;10.20;;;2.65;;
48629;SDS011;34426;52.180;4.462;2022-08-19T10:36:29;10.35;;;2.60;;
48629;SDS011;34426;52.180;4.462;2022-08-19T10:38:57;10.93;;;2.83;;
48629;SDS011;34426;52.180;4.462;2022-08-19T10:41:26;9.60;;;2.47;;
48629;SDS011;34426;52.180;4.462;2022-08-19T10:43:56;13.25;;;2.92;;
48629;SDS011;34426;52.180;4.462;2022-08-19T10:46:25;9.18;;;2.20;;
48629;SDS011;34426;52.180;4.462;2022-08-19T10:48:56;7.65;;;2.10;;
48629;SDS011;34426;52.180;4.462;2022-08-19T10:51:23;9.57;;;2.20;;
48629;SDS011;34426;52.180;4.462;2022-08-19T10:53:51;10.45;;;2.28;;
48629;SDS011;34426;52.180;4.462;2022-08-19T10:56:19;9.00;;;2.63;;
48629;SDS011;34426;52.180;4.462;2022-08-19T10:58:47;7.20;;;2.20;;
48629;SDS011;34426;52.180;4.462;2022-08-19T11:01:14;8.35;;;2.30;;
48629;SDS011;34426;52.180;4.462;2022-08-19T11:03:42;9.25;;;2.10;;
48629;SDS011;34426;52.180;4.462;2022-08-19T11:06:11;6.22;;;1.65;;
48629;SDS011;34426;52.180;4.462;2022-08-19T11:08:40;6.25;;;1.88;;
48629;SDS011;34426;52.180;4.462;2022-08-19T11:11:11;5.80;;;1.73;;
48629;SDS011;34426;52.180;4.462;2022-08-19T11:13:39;7.97;;;2.10;;
48629;SDS011;34426;52.180;4.462;2022-08-19T11:16:08;6.13;;;1.80;;
48629;SDS011;34426;52.180;4.462;2022-08-19T11:18:39;5.38;;;2.00;;
48629;SDS011;34426;52.180;4.462;2022-08-19T11:21:12;6.78;;;1.70;;
48629;SDS011;34426;52.180;4.462;2022-08-19T11:23:42;4.63;;;1.85;;
48629;SDS011;34426;52.180;4.462;2022-08-19T11:26:09;3.88;;;1.90;;
48629;SDS011;34426;52.180;4.462;2022-08-19T11:28:37;6.28;;;2.00;;
48629;SDS011;34426;52.180;4.462;2022-08-19T11:31:09;8.50;;;1.98;;
48629;SDS011;34426;52.180;4.462;2022-08-19T11:33:36;5.93;;;1.80;;
48629;SDS011;34426;52.180;4.462;2022-08-19T11:36:06;7.30;;;1.88;;
48629;SDS011;34426;52.180;4.462;2022-08-19T11:38:35;6.45;;;2.00;;
48629;SDS011;34426;52.180;4.462;2022-08-19T11:41:03;4.50;;;1.58;;
48629;SDS011;34426;52.180;4.462;2022-08-19T11:43:33;7.68;;;2.00;;
48629;SDS011;34426;52.180;4.462;2022-08-19T11:46:03;9.93;;;2.40;;
48629;SDS011;34426;52.180;4.462;2022-08-19T11:48:32;8.98;;;1.95;;
48629;SDS011;34426;52.180;4.462;2022-08-19T11:51:02;7.55;;;1.98;;
48629;SDS011;34426;52.180;4.462;2022-08-19T11:53:31;8.60;;;1.33;;
48629;SDS011;34426;52.180;4.462;2022-08-19T11:56:02;5.90;;;1.85;;
48629;SDS011;34426;52.180;4.462;2022-08-19T11:58:30;8.75;;;1.50;;
48629;SDS011;34426;52.180;4.462;2022-08-19T12:00:58;11.25;;;1.73;;
48629;SDS011;34426;52.180;4.462;2022-08-19T12:03:26;6.60;;;1.48;;
48629;SDS011;34426;52.180;4.462;2022-08-19T12:05:54;5.88;;;1.63;;
48629;SDS011;34426;52.180;4.462;2022-08-19T12:08:21;11.63;;;2.20;;
48629;SDS011;34426;52.180;4.462;2022-08-19T12:10:49;4.75;;;1.60;;
48629;SDS011;34426;52.180;4.462;2022-08-19T12:13:21;6.47;;;1.80;;
48629;SDS011;34426;52.180;4.462;2022-08-19T12:18:15;4.88;;;1.58;;
48629;SDS011;34426;52.180;4.462;2022-08-19T12:20:42;8.57;;;1.60;;
48629;SDS011;34426;52.180;4.462;2022-08-19T12:23:10;4.38;;;1.63;;
48629;SDS011;34426;52.180;4.462;2022-08-19T12:25:42;6.07;;;1.83;;
48629;SDS011;34426;52.180;4.462;2022-08-19T12:28:11;9.80;;;2.22;;
48629;SDS011;34426;52.180;4.462;2022-08-19T12:30:40;4.05;;;1.48;;
48629;SDS011;34426;52.180;4.462;2022-08-19T12:33:08;7.18;;;2.20;;
48629;SDS011;34426;52.180;4.462;2022-08-19T12:35:38;9.48;;;1.90;;
48629;SDS011;34426;52.180;4.462;2022-08-19T12:38:07;5.35;;;1.50;;
48629;SDS011;34426;52.180;4.462;2022-08-19T12:40:35;6.85;;;2.03;;
48629;SDS011;34426;52.180;4.462;2022-08-19T12:43:03;3.80;;;1.35;;
48629;SDS011;34426;52.180;4.462;2022-08-19T12:45:30;5.30;;;1.40;;
48629;SDS011;34426;52.180;4.462;2022-08-19T12:47:58;4.25;;;1.40;;
48629;SDS011;34426;52.180;4.462;2022-08-19T12:50:26;5.03;;;1.55;;
48629;SDS011;34426;52.180;4.462;2022-08-19T12:52:56;5.72;;;1.42;;
48629;SDS011;34426;52.180;4.462;2022-08-19T12:55:24;4.40;;;1.38;;
48629;SDS011;34426;52.180;4.462;2022-08-19T12:57:51;4.55;;;1.85;;
48629;SDS011;34426;52.180;4.462;2022-08-19T13:00:19;4.80;;;1.65;;
48629;SDS011;34426;52.180;4.462;2022-08-19T13:02:48;9.13;;;2.53;;
48629;SDS011;34426;52.180;4.462;2022-08-19T13:05:19;6.03;;;1.70;;
48629;SDS011;34426;52.180;4.462;2022-08-19T13:07:49;4.15;;;1.25;;
48629;SDS011;34426;52.180;4.462;2022-08-19T13:10:18;4.72;;;1.52;;
48629;SDS011;34426;52.180;4.462;2022-08-19T13:12:48;3.22;;;1.52;;
48629;SDS011;34426;52.180;4.462;2022-08-19T13:15:17;5.88;;;1.60;;
48629;SDS011;34426;52.180;4.462;2022-08-19T13:17:47;5.57;;;1.80;;
48629;SDS011;34426;52.180;4.462;2022-08-19T13:20:13;5.18;;;1.52;;
48629;SDS011;34426;52.180;4.462;2022-08-19T13:22:40;5.15;;;1.80;;
48629;SDS011;34426;52.180;4.462;2022-08-19T13:25:07;4.07;;;1.52;;
48629;SDS011;34426;52.180;4.462;2022-08-19T13:27:35;5.13;;;1.67;;
48629;SDS011;34426;52.180;4.462;2022-08-19T13:30:03;3.58;;;1.42;;
48629;SDS011;34426;52.180;4.462;2022-08-19T13:32:34;6.68;;;1.42;;
48629;SDS011;34426;52.180;4.462;2022-08-19T13:35:01;8.55;;;1.90;;
48629;SDS011;34426;52.180;4.462;2022-08-19T13:37:30;6.38;;;1.55;;
48629;SDS011;34426;52.180;4.462;2022-08-19T13:39:59;5.20;;;1.70;;
48629;SDS011;34426;52.180;4.462;2022-08-19T13:42:27;6.47;;;2.03;;
48629;SDS011;34426;52.180;4.462;2022-08-19T13:44:54;4.13;;;1.33;;
48629;SDS011;34426;52.180;4.462;2022-08-19T13:47:22;5.50;;;1.30;;
48629;SDS011;34426;52.180;4.462;2022-08-19T13:49:50;7.15;;;1.95;;
48629;SDS011;34426;52.180;4.462;2022-08-19T13:52:18;3.25;;;1.27;;
48629;SDS011;34426;52.180;4.462;2022-08-19T13:54:45;1.65;;;1.08;;
48629;SDS011;34426;52.180;4.462;2022-08-19T13:57:15;5.32;;;1.50;;
48629;SDS011;34426;52.180;4.462;2022-08-19T13:59:42;5.38;;;1.88;;
48629;SDS011;34426;52.180;4.462;2022-08-19T14:02:11;2.80;;;1.25;;
48629;SDS011;34426;52.180;4.462;2022-08-19T14:04:39;3.22;;;1.30;;
48629;SDS011;34426;52.180;4.462;2022-08-19T14:07:06;5.90;;;1.85;;
48629;SDS011;34426;52.180;4.462;2022-08-19T14:09:34;3.13;;;1.20;;
48629;SDS011;34426;52.180;4.462;2022-08-19T14:12:00;6.53;;;1.48;;
48629;SDS011;34426;52.180;4.462;2022-08-19T14:14:27;5.85;;;1.80;;
48629;SDS011;34426;52.180;4.462;2022-08-19T14:16:53;3.83;;;1.48;;
48629;SDS011;34426;52.180;4.462;2022-08-19T14:19:18;4.00;;;1.40;;
48629;SDS011;34426;52.180;4.462;2022-08-19T14:21:44;3.63;;;1.30;;
48629;SDS011;34426;52.180;4.462;2022-08-19T14:24:09;11.13;;;2.40;;
48629;SDS011;34426;52.180;4.462;2022-08-19T14:26:34;3.58;;;1.38;;
48629;SDS011;34426;52.180;4.462;2022-08-19T14:29:00;4.07;;;1.38;;
48629;SDS011;34426;52.180;4.462;2022-08-19T14:31:27;3.97;;;1.52;;
48629;SDS011;34426;52.180;4.462;2022-08-19T14:33:52;3.85;;;1.73;;
48629;SDS011;34426;52.180;4.462;2022-08-19T14:36:18;5.78;;;1.88;;
48629;SDS011;34426;52.180;4.462;2022-08-19T14:38:45;5.60;;;2.15;;
48629;SDS011;34426;52.180;4.462;2022-08-19T14:41:12;4.18;;;2.10;;
48629;SDS011;34426;52.180;4.462;2022-08-19T14:43:40;9.13;;;2.03;;
48629;SDS011;34426;52.180;4.462;2022-08-19T14:46:07;8.30;;;2.60;;
48629;SDS011;34426;52.180;4.462;2022-08-19T14:48:37;3.88;;;1.98;;
48629;SDS011;34426;52.180;4.462;2022-08-19T14:51:05;8.13;;;2.42;;